Hovedside
METAR-TAF:

METAR-TAF

Lufthavner :

La Palma lufthavn

La Palma, Spania

breddegrad: 28-37N, lengdegrad: 017-45W, høyde over havet: 29 m

Gjeldene værobservasjon

Denne rapporten ble laget for 30 minutter siden, klokken 05:30 UTC
Vind 3 kt fra Nord-nordvest, skiftende mellom Nordvest og Nord-nordøst
Temperatur 19°C
Luftfuktighet 78%
Trykk 1016 hPa
Sikt 10 km eller mer
ingen skyer under 1500 m og ingen bygeskyer

METAR: GCLA 190530Z AUTO 34003KT 320V020 CAVOK 19/15 Q1016

Tid: 07:00 (06:00 UTC)

Varsel

Denne rapporten ble laget for 4 timer og 0 minutter siden, klokken 02:00 UTC
Varsel gyldig fra 19. klokken 03 UTC til 20. klokken 03 UTC
Vind 6 kt fra Nordvest
Sikt 10 km eller mer
Spredte skyer i en høyde av 2500 ft
Blir
fra 19. klokken 10 UTC til 19. klokken 12 UTC
Vind 10 kt fra Nord-nordøst

TAF: GCLA 190200Z 1903/2003 32006KT 9999 SCT025 TX24/1914Z TN20/1906Z BECMG 1910/1912 02010KT

Værobservasjoner og værvarsel for over 4000 flyplasser (METAR- og TAF-rapporter).

Tilgjengelige stasjoner er representert av de røde og gule prikkene på kartet.

Hold musepekeren over prikken for å se navnet på stasjonen.

Klikk så for å se værobservasjoner og -varsler.

For å forandre kartet kan du klikke på den grønne knappen med svart kryss for å zoome inn, på den grønne knappen med strek for å zoome ut, eller på de grønne pilene for å se tilstøtende kart.


METAR-TAF: